Cologne, Texas
Current Conditions -  °F | °C
As of 4:02 AM on Friday 21 Nov 2014 (Local Time) from KVCT Reporting Station
Haze Haze  
Wind Chill: 64°   Ceiling: 3600
Heat Index: 64°   Visibility: 3mi
Dew Point: 62°   Wind: 6mph
Humidity: 93%   Direction: 90°E
Pressure: 30.05"   Gusts: NA
Location:  28.7094°N, 97.0351°W
Report Text: KVCT 211002Z AUTO 09005KT 3SM BR BKN036 BKN044 18/17 A3005 RMK AO2 T01780167
Loading
Personal Weather Stations






























Interactive Weather Map New forecast layout! Learn more

10-Day Weather Forecast

Advertisements
Track Severe Weather on mobile